TimeEDT,TemperatureF,Dew PointF,Humidity,Sea Level PressureIn,VisibilityMPH,Wind Direction,Wind SpeedMPH,Gust SpeedMPH,PrecipitationIn,Events,Conditions,WindDirDegrees,DateUTC
12:53 AM,48.9,46.0,90,30.07,10.0,North,3.5,-,N/A,,Clear,350,2013-09-14 04:53:00
1:53 AM,50.0,46.0,86,30.08,10.0,North,3.5,-,N/A,,Clear,10,2013-09-14 05:53:00
2:53 AM,52.0,45.0,77,30.09,10.0,NNE,4.6,-,N/A,,Clear,20,2013-09-14 06:53:00
3:53 AM,50.0,45.0,83,30.09,10.0,North,4.6,-,N/A,,Clear,10,2013-09-14 07:53:00
4:53 AM,50.0,45.0,83,30.09,10.0,NNE,3.5,-,N/A,,Clear,20,2013-09-14 08:53:00
5:53 AM,48.9,45.0,86,30.10,10.0,NNE,3.5,-,N/A,,Clear,30,2013-09-14 09:53:00
6:53 AM,46.9,45.0,93,30.11,10.0,Calm,Calm,-,N/A,,Clear,0,2013-09-14 10:53:00
7:53 AM,48.0,45.0,89,30.13,10.0,Calm,Calm,-,N/A,,Clear,0,2013-09-14 11:53:00
8:53 AM,53.1,46.9,80,30.15,10.0,ENE,5.8,-,N/A,,Clear,60,2013-09-14 12:53:00
9:53 AM,57.0,48.0,72,30.15,10.0,ENE,6.9,-,N/A,,Clear,60,2013-09-14 13:53:00
10:53 AM,62.1,46.9,58,30.16,10.0,NE,9.2,-,N/A,,Clear,50,2013-09-14 14:53:00
11:53 AM,64.9,45.0,48,30.16,10.0,ENE,6.9,-,N/A,,Clear,60,2013-09-14 15:53:00
12:53 PM,66.9,44.1,44,30.16,10.0,Variable,4.6,-,N/A,,Clear,0,2013-09-14 16:53:00
1:53 PM,69.1,44.1,40,30.14,10.0,Variable,4.6,-,N/A,,Clear,0,2013-09-14 17:53:00
2:53 PM,71.1,43.0,36,30.11,10.0,Variable,3.5,-,N/A,,Clear,0,2013-09-14 18:53:00
3:53 PM,72.0,41.0,33,30.11,10.0,NE,6.9,-,N/A,,Clear,50,2013-09-14 19:53:00
4:53 PM,73.9,41.0,30,30.08,10.0,Variable,3.5,-,N/A,,Clear,0,2013-09-14 20:53:00
5:53 PM,72.0,41.0,33,30.09,10.0,Variable,4.6,-,N/A,,Clear,0,2013-09-14 21:53:00
6:53 PM,68.0,41.0,37,30.09,10.0,East,6.9,-,N/A,,Clear,100,2013-09-14 22:53:00
7:53 PM,64.0,43.0,46,30.10,10.0,ESE,3.5,-,N/A,,Clear,110,2013-09-14 23:53:00
8:53 PM,57.0,46.0,67,30.12,10.0,Calm,Calm,-,N/A,,Clear,0,2013-09-15 00:53:00
9:53 PM,54.0,46.0,75,30.12,10.0,Calm,Calm,-,N/A,,Clear,0,2013-09-15 01:53:00
10:53 PM,53.1,46.9,80,30.11,10.0,Calm,Calm,-,N/A,,Clear,0,2013-09-15 02:53:00
11:53 PM,50.0,46.0,86,30.11,10.0,Calm,Calm,-,N/A,,Clear,0,2013-09-15 03:53:00